Relevés horaires Schaffen (Belgique)


Relevés horaires à Schaffen - Mercredi 29 Avr. 2026
Heure UTC1 Température [°C] Vent [km/h] Hum. [%] Pres.4 [hPa] Visi. [Km] Nébu. [octa] Préc.5 [mm] Cond.
2m. Res. Ros. Dir.2 Vit. Moy. Raf.3
23:00 12.7 12.3 -2.5 ESE 7.4 -- 13.0 35 1025.7(1.3/3h) >70 -- -- --
22:00 13.2 12.9 -0.7 E 7.4 -- 13.0 38 1025.2(1.3/3h) >70 -- -- --
21:00 14.4 14.3 -0.1 ENE 7.4 -- 18.5 37 1024.7(1.6/3h) >70 -- -- --
20:00 15.2 15.2 -0.7 ENE 7.4 -- 13.0 34 1024.2(1.1/3h) >70 -- -- --
19:00 16.5 16.5 -1.7 ENE 9.3 -- 18.5 29 1023.7(0.7/3h) >70 -- -- --
18:00 18.0 18.0 -2.1 ENE 9.3 -- 22.2 25 1023(0.1/3h) >70 -- -- --
17:00 18.7 18.7 -1.8 ENE 11.1 -- 20.4 25 1023(-0.3/3h) >70 -- -- --
16:00 19.1 19.1 -1.3 ENE 11.1 -- 20.4 25 1023(-0.6/3h) >70 -- -- --
15:00 19.1 19.1 -1.3 ENE 11.1 -- 22.2 25 1023.1(-0.8/3h) >70 -- -- --
14:00 19.2 19.2 -0.8 ENE 11.1 -- 20.4 26 1023.2(-0.6/3h) >70 -- -- --
13:00 18.6 18.6 -1.4 ENE 9.3 -- 20.4 26 1023.7(-0.6/3h) >70 -- -- --
12:00 17.6 17.6 -2.4 ENE 9.3 -- 20.4 25 1024(-0.2/3h) >70 -- -- --
11:00 17.1 17 -2.3 ENE 11.1 -- 18.5 26 1024(-0.3/3h) >70 -- -- --
10:00 16.2 15.9 -1.3 ENE 11.1 -- 20.4 30 1024.2(0.1/3h) >70 -- -- --
09:00 14.6 14.2 -1.9 ENE 9.3 -- 20.4 32 1024.2(0.5/3h) 25 1/8 -- --
08:00 12.6 11.8 -1.8 ENE 9.3 -- 18.5 37 1024.5(0.9/3h) >70 -- -- --
07:00 10.8 9.7 -1.4 ENE 9.3 -- 16.7 43 1024.4(0.9/3h) >70 -- -- --
06:00 9.1 8.1 -1.0 ENE 7.4 -- 16.7 49 1023.8(0.7/3h) >70 -- -- --
05:00 8.2 7 -0.9 ENE 7.4 -- 13.0 53 1023.6(0.6/3h) >70 -- -- --
04:00 8.6 7.5 -1.5 ENE 7.4 -- 16.7 49 1023.5(0.7/3h) >70 -- -- --
03:00 9.6 8.3 -1.9 ENE 9.3 -- 16.7 44 1023.1(0.5/3h) >70 -- -- --
02:00 10.9 10.2 -2.3 ENE 7.4 -- 13.0 40 1022.8(0.5/3h) >70 -- -- --
01:00 11.0 10.7 -1.9 ENE 5.6 -- 13.0 40 1022.7(0.7/3h) >70 -- -- --
00:00 11.8 11.2 -1.5 ENE 7.4 -- 18.5 40 1022.5(0.8/3h) >70 -- -- --

1 Coordinated Universal Time. Actuellement il est 19:00 locale et 17:00 UTC.

2 Le vent souffle depuis la direction indiquée vers la direction oposée.

3 Les rafales max. sont disponible 40 min après l'heure du relevé.

4 Pour les stations d'altitude (plus de 600m) le géopotentiel du niveau le plus proche de la pression obligatoire est indiqué.

5 Les stations disposant d'un diffuseur peuvent indiquer "trace". Cela signifie que des précipitations ont touchés le sol mais que la quantité est inférieure à 0.1 mm.

Récapitulatif de la journée
Température [°C] Vent [km/h] Ensoleillement4 [h] Precipitations totale5 [mm] Pression [Hpa]
Min1 Max.2 Moy.3 Max. Min Max.
8.1 20.2 0 22.2 0 h 0 min 0 1022.5 1025.7

1 Température minimale relevée entre 18:00 UTC la veille et 18:00 UTC le jour donné.

2 Température maximale relevée entre 06:00 UTC le jour donné et 06:00 UTC le lendemain.

3 Vent moyen de la journée basé sur les relevés horaires.

4 Ensoleillement en heures relevé entre 06:00 UTC la veille et 06:00 UTC le jour donné.

5 Précipitations totales tombées entre 06:00 UTC la jour donné et 06:00 UTC le lendemain.

Graphiques horaires